createdAt,value
2023-03-05T00:00:02.273Z,8.63
2023-03-05T00:02:30.121Z,13.10
2023-03-05T00:04:57.922Z,8.38
2023-03-05T00:07:25.720Z,8.98
2023-03-05T00:09:53.479Z,8.65
2023-03-05T00:12:22.651Z,9.02
2023-03-05T00:14:50.382Z,8.88
2023-03-05T00:17:18.186Z,8.00
2023-03-05T00:19:45.988Z,10.10
2023-03-05T00:22:13.768Z,8.45
2023-03-05T00:24:41.564Z,9.80
2023-03-05T00:27:09.397Z,9.45
2023-03-05T00:29:38.595Z,10.27
2023-03-05T00:32:06.887Z,11.48
2023-03-05T00:34:36.311Z,9.63
2023-03-05T00:37:04.396Z,9.80
2023-03-05T00:39:32.178Z,8.20
2023-03-05T00:41:59.944Z,10.55
2023-03-05T00:44:27.774Z,10.90
2023-03-05T00:46:56.896Z,8.13
2023-03-05T00:49:24.781Z,15.10
2023-03-05T00:51:52.601Z,11.02
2023-03-05T00:54:20.431Z,12.57
2023-03-05T00:56:49.131Z,10.05
2023-03-05T00:59:16.960Z,16.13
2023-03-05T01:01:44.799Z,11.35
2023-03-05T01:04:14.011Z,13.95
2023-03-05T01:06:44.583Z,11.05
2023-03-05T01:09:13.554Z,9.55
2023-03-05T01:11:41.370Z,8.77
2023-03-05T01:14:09.524Z,9.10
2023-03-05T01:16:37.368Z,10.57
2023-03-05T01:19:05.170Z,11.00
2023-03-05T01:21:35.577Z,12.60
2023-03-05T01:24:03.566Z,10.38
2023-03-05T01:26:31.537Z,11.45
2023-03-05T01:28:59.289Z,9.70
2023-03-05T01:31:27.512Z,10.57
2023-03-05T01:33:55.998Z,12.43
2023-03-05T01:36:25.235Z,10.13
2023-03-05T01:38:54.506Z,12.25
2023-03-05T01:41:22.777Z,13.80
2023-03-05T01:43:52.860Z,10.52
2023-03-05T01:46:31.906Z,9.90
2023-03-05T01:49:09.550Z,12.05
2023-03-05T01:51:41.858Z,10.35
2023-03-05T01:54:14.198Z,9.50
2023-03-05T01:56:42.766Z,13.38
2023-03-05T01:59:11.807Z,9.50
2023-03-05T02:01:42.399Z,11.85
2023-03-05T02:04:12.512Z,10.20
2023-03-05T02:06:42.185Z,13.18
2023-03-05T02:09:11.467Z,12.02
2023-03-05T02:11:39.894Z,12.43
2023-03-05T02:14:10.152Z,9.38
2023-03-05T02:16:39.673Z,8.63
2023-03-05T02:19:10.593Z,10.35
2023-03-05T02:21:42.090Z,10.52
2023-03-05T02:24:13.744Z,12.35
2023-03-05T02:26:43.145Z,10.40
2023-03-05T02:29:14.182Z,12.07
2023-03-05T02:31:43.129Z,11.48
2023-03-05T02:34:11.011Z,10.35
2023-03-05T02:36:40.208Z,11.82
2023-03-05T02:39:09.917Z,13.40
2023-03-05T02:41:38.116Z,9.32
2023-03-05T02:44:06.428Z,13.82
2023-03-05T02:46:34.301Z,10.13
2023-03-05T02:49:02.165Z,10.25
2023-03-05T02:51:29.998Z,12.98
2023-03-05T02:53:59.278Z,10.85
2023-03-05T02:56:28.844Z,10.75
2023-03-05T02:58:56.641Z,9.75
2023-03-05T03:01:24.525Z,9.55
2023-03-05T03:03:52.331Z,13.13
2023-03-05T03:06:20.074Z,10.40
2023-03-05T03:08:47.820Z,10.07
2023-03-05T03:11:17.657Z,10.35
2023-03-05T03:13:45.578Z,8.95
2023-03-05T03:16:15.753Z,9.48
2023-03-05T03:18:44.084Z,9.27
2023-03-05T03:21:18.443Z,11.68
2023-03-05T03:23:46.255Z,12.68
2023-03-05T03:26:14.076Z,9.35
2023-03-05T03:28:43.995Z,9.18
2023-03-05T03:31:12.066Z,9.98
2023-03-05T03:33:39.870Z,12.75
2023-03-05T03:36:08.656Z,12.77
2023-03-05T03:38:36.398Z,10.88
2023-03-05T03:41:06.966Z,10.65
2023-03-05T03:43:34.849Z,9.93
2023-03-05T03:46:05.305Z,10.05
2023-03-05T03:48:33.119Z,10.38
2023-03-05T03:51:00.918Z,11.30
2023-03-05T03:53:28.687Z,9.32
2023-03-05T03:55:59.322Z,7.95
2023-03-05T03:58:27.552Z,10.68
2023-03-05T04:00:55.375Z,9.05
2023-03-05T04:03:24.537Z,9.90
2023-03-05T04:05:52.328Z,12.07
2023-03-05T04:08:20.112Z,12.45
2023-03-05T04:10:47.851Z,8.15
2023-03-05T04:13:15.623Z,9.32
2023-03-05T04:15:43.545Z,9.95
2023-03-05T04:18:12.125Z,6.63
2023-03-05T04:20:41.255Z,8.65
2023-03-05T04:23:09.491Z,7.45
2023-03-05T04:25:37.228Z,9.13
2023-03-05T04:28:05.183Z,10.45
2023-03-05T04:30:33.215Z,9.52
2023-03-05T04:33:01.017Z,6.75
2023-03-05T04:35:28.874Z,6.65
2023-03-05T04:37:58.055Z,8.73
2023-03-05T04:40:25.920Z,8.80
2023-03-05T04:42:53.715Z,6.57
2023-03-05T04:45:21.486Z,8.05
2023-03-05T04:47:49.313Z,8.82
2023-03-05T04:50:17.241Z,6.68
2023-03-05T04:52:46.299Z,6.65
2023-03-05T04:55:16.711Z,8.82
2023-03-05T04:57:44.998Z,8.30
2023-03-05T05:00:16.665Z,7.70
2023-03-05T05:02:45.364Z,9.57
2023-03-05T05:05:15.344Z,6.18
2023-03-05T05:07:43.223Z,5.35
2023-03-05T05:10:12.700Z,6.45
2023-03-05T05:12:42.028Z,7.53
2023-03-05T05:15:11.259Z,6.25
2023-03-05T05:17:39.053Z,5.78
2023-03-05T05:20:08.264Z,6.22
2023-03-05T05:22:36.433Z,7.53
2023-03-05T05:25:05.108Z,7.90
2023-03-05T05:27:32.982Z,7.05
2023-03-05T05:30:02.442Z,5.35
2023-03-05T05:32:30.319Z,5.45
2023-03-05T05:34:59.381Z,8.07
2023-03-05T05:37:28.279Z,5.95
2023-03-05T05:39:56.103Z,5.45
2023-03-05T05:42:25.862Z,8.05
2023-03-05T05:44:55.460Z,7.82
2023-03-05T05:47:24.606Z,9.93
2023-03-05T05:49:52.553Z,7.65
2023-03-05T05:52:20.384Z,7.32
2023-03-05T05:54:48.327Z,6.70
2023-03-05T05:57:16.491Z,7.28
2023-03-05T05:59:44.293Z,6.53
2023-03-05T06:02:12.215Z,5.03
2023-03-05T06:04:41.410Z,9.48
2023-03-05T06:07:09.287Z,7.50
2023-03-05T06:09:37.388Z,6.43
2023-03-05T06:12:06.009Z,6.60
2023-03-05T06:14:33.912Z,5.00
2023-03-05T06:17:01.883Z,6.47
2023-03-05T06:19:29.745Z,11.48
2023-03-05T06:21:58.926Z,5.47
2023-03-05T06:24:26.767Z,6.43
2023-03-05T06:26:54.513Z,7.90
2023-03-05T06:29:22.302Z,8.32
2023-03-05T06:31:50.165Z,8.07
2023-03-05T06:34:17.913Z,8.27
2023-03-05T06:36:45.683Z,7.38
2023-03-05T06:39:14.817Z,6.85
2023-03-05T06:41:42.650Z,6.97
2023-03-05T06:44:11.094Z,7.07
2023-03-05T06:46:40.221Z,6.60
2023-03-05T06:49:09.474Z,7.47
2023-03-05T06:51:39.008Z,6.35
2023-03-05T06:54:08.771Z,8.00
2023-03-05T06:56:39.840Z,9.45
2023-03-05T06:59:08.189Z,8.15
2023-03-05T07:01:36.600Z,5.55
2023-03-05T07:04:05.896Z,5.88
2023-03-05T07:06:35.205Z,6.13
2023-03-05T07:09:04.894Z,8.05
2023-03-05T07:11:33.381Z,7.15
2023-03-05T07:14:03.821Z,7.53
2023-03-05T07:16:33.361Z,7.80
2023-03-05T07:19:03.138Z,6.13
2023-03-05T07:21:32.660Z,9.07
2023-03-05T07:24:01.928Z,7.63
2023-03-05T07:26:30.822Z,6.35
2023-03-05T07:28:59.205Z,6.35
2023-03-05T07:31:31.445Z,5.03
2023-03-05T07:34:03.429Z,5.78
2023-03-05T07:36:34.829Z,5.50
2023-03-05T07:39:04.590Z,6.70
2023-03-05T07:41:32.348Z,8.30
2023-03-05T07:44:00.135Z,8.63
2023-03-05T07:46:33.012Z,4.13
2023-03-05T07:49:01.306Z,8.10
2023-03-05T07:51:29.492Z,6.90
2023-03-05T07:53:59.519Z,5.50
2023-03-05T07:56:31.683Z,6.28
2023-03-05T07:59:00.268Z,6.72
2023-03-05T08:01:29.950Z,4.88
2023-03-05T08:03:57.978Z,5.18
2023-03-05T08:06:26.011Z,5.18
2023-03-05T08:08:53.790Z,6.35
2023-03-05T08:11:21.579Z,5.78
2023-03-05T08:13:49.388Z,7.07
2023-03-05T08:16:19.298Z,4.75
2023-03-05T08:18:49.300Z,7.15
2023-03-05T08:21:18.549Z,4.53
2023-03-05T08:23:46.446Z,5.50
2023-03-05T08:26:15.373Z,5.32
2023-03-05T08:28:43.317Z,6.10
2023-03-05T08:31:11.297Z,7.05
2023-03-05T08:33:39.927Z,5.85
2023-03-05T08:36:10.612Z,6.72
2023-03-05T08:38:38.430Z,4.43
2023-03-05T08:41:06.894Z,6.85
2023-03-05T08:43:34.707Z,6.32
2023-03-05T08:46:02.751Z,7.32
2023-03-05T08:48:31.685Z,5.53
2023-03-05T08:51:05.447Z,7.60
2023-03-05T08:53:34.684Z,5.40
2023-03-05T08:56:02.510Z,6.03
2023-03-05T08:58:30.291Z,5.07
2023-03-05T09:00:58.379Z,5.63
2023-03-05T09:03:26.812Z,6.50
2023-03-05T09:05:54.740Z,5.93
2023-03-05T09:08:22.499Z,4.82
2023-03-05T09:10:51.653Z,5.20
2023-03-05T09:13:19.454Z,5.80
2023-03-05T09:15:47.276Z,5.95
2023-03-05T09:18:15.103Z,7.28
2023-03-05T09:20:42.868Z,7.53
2023-03-05T09:23:10.675Z,5.90
2023-03-05T09:25:41.175Z,4.28
2023-03-05T09:28:10.399Z,5.13
2023-03-05T09:30:38.300Z,4.93
2023-03-05T09:33:06.526Z,5.57
2023-03-05T09:35:35.765Z,5.35
2023-03-05T09:38:03.998Z,5.45
2023-03-05T09:40:39.150Z,6.10
2023-03-05T09:43:15.766Z,7.35
2023-03-05T09:46:00.345Z,5.18
2023-03-05T09:48:47.575Z,6.30
2023-03-05T09:51:21.880Z,6.22
2023-03-05T09:53:54.994Z,6.30
2023-03-05T09:56:27.597Z,7.53
2023-03-05T09:59:01.890Z,5.38
2023-03-05T10:01:34.566Z,5.22
2023-03-05T10:04:08.397Z,5.05
2023-03-05T10:06:38.286Z,4.75
2023-03-05T10:09:16.199Z,6.55
2023-03-05T10:11:50.237Z,4.90
2023-03-05T10:14:26.095Z,6.80
2023-03-05T10:17:01.809Z,7.28
2023-03-05T10:19:48.848Z,6.93
2023-03-05T10:22:22.536Z,4.53
2023-03-05T10:25:04.371Z,5.80
2023-03-05T10:27:45.169Z,7.22
2023-03-05T10:30:33.541Z,4.13
2023-03-05T10:33:14.729Z,4.75
2023-03-05T10:36:12.393Z,6.38
2023-03-05T10:39:08.167Z,4.60
2023-03-05T10:41:44.079Z,5.90
2023-03-05T10:44:17.160Z,4.78
2023-03-05T10:46:48.740Z,5.40
2023-03-05T10:49:21.235Z,6.60
2023-03-05T10:51:53.145Z,5.25
2023-03-05T10:54:26.507Z,4.65
2023-03-05T10:57:04.806Z,5.63
2023-03-05T10:59:33.296Z,5.28
2023-03-05T11:02:08.687Z,4.53
2023-03-05T11:04:39.662Z,5.68
2023-03-05T11:07:28.934Z,5.85
2023-03-05T11:10:05.511Z,4.80
2023-03-05T11:12:34.173Z,3.72
2023-03-05T11:15:07.692Z,4.25
2023-03-05T11:17:39.228Z,3.80
2023-03-05T11:20:32.924Z,3.75
2023-03-05T11:23:09.963Z,4.45
2023-03-05T11:25:53.490Z,3.42
2023-03-05T11:28:32.268Z,3.30
2023-03-05T11:31:04.164Z,5.63
2023-03-05T11:33:33.878Z,4.15
2023-03-05T11:36:19.971Z,3.67
2023-03-05T11:38:52.264Z,4.93
2023-03-05T11:41:25.881Z,3.75
2023-03-05T11:43:55.299Z,4.05
2023-03-05T11:46:24.077Z,5.40
2023-03-05T11:48:55.466Z,3.30
2023-03-05T11:51:27.749Z,4.43
2023-03-05T11:54:00.257Z,5.05
2023-03-05T11:56:31.150Z,6.10
2023-03-05T11:59:02.791Z,3.47
2023-03-05T12:01:33.492Z,3.75
2023-03-05T12:04:04.536Z,4.03
2023-03-05T12:09:09.115Z,3.58
2023-03-05T12:11:37.921Z,4.45
2023-03-05T12:14:11.261Z,4.15
2023-03-05T12:16:43.235Z,3.65
2023-03-05T12:19:35.693Z,4.38
2023-03-05T12:22:04.992Z,6.28
2023-03-05T12:24:38.458Z,4.85
2023-03-05T12:27:12.294Z,4.22
2023-03-05T12:29:43.392Z,4.07
2023-03-05T12:35:01.706Z,5.93
2023-03-05T12:38:06.172Z,4.80
2023-03-05T12:40:38.560Z,4.07
2023-03-05T12:43:06.907Z,4.13
2023-03-05T12:45:37.555Z,4.97
2023-03-05T12:48:43.219Z,5.65
2023-03-05T12:51:34.251Z,4.35
2023-03-05T12:54:30.970Z,4.65
2023-03-05T12:57:00.355Z,3.35
2023-03-05T12:59:36.544Z,3.22
2023-03-05T13:02:16.866Z,4.90
2023-03-05T13:04:46.849Z,4.00
2023-03-05T13:07:18.722Z,4.68
2023-03-05T13:09:54.067Z,4.78
2023-03-05T13:12:22.517Z,4.40
2023-03-05T13:14:59.235Z,4.68
2023-03-05T13:17:39.502Z,3.65
2023-03-05T13:20:30.034Z,4.40
2023-03-05T13:23:23.947Z,4.18
2023-03-05T13:26:01.421Z,2.78
2023-03-05T13:28:30.432Z,4.35
2023-03-05T13:31:00.099Z,4.20
2023-03-05T13:33:30.606Z,4.40
2023-03-05T13:35:58.537Z,4.68
2023-03-05T13:38:32.779Z,5.05
2023-03-05T13:41:20.898Z,4.50
2023-03-05T13:43:51.377Z,4.45
2023-03-05T13:46:31.533Z,5.03
2023-03-05T13:49:18.240Z,4.80
2023-03-05T13:51:48.254Z,3.70
2023-03-05T13:54:18.977Z,4.60
2023-03-05T13:56:56.456Z,4.07
2023-03-05T13:59:26.004Z,6.82
2023-03-05T14:01:54.384Z,4.70
2023-03-05T14:04:25.254Z,5.40
2023-03-05T14:06:58.190Z,5.18
2023-03-05T14:09:29.810Z,5.50
2023-03-05T14:12:00.918Z,5.60
2023-03-05T14:16:57.022Z,5.78
2023-03-05T14:19:39.079Z,5.18
2023-03-05T14:22:07.427Z,6.20
2023-03-05T14:24:38.157Z,4.13
2023-03-05T14:27:13.268Z,4.68
2023-03-05T14:29:46.433Z,4.50
2023-03-05T14:32:24.233Z,5.82
2023-03-05T14:34:57.083Z,4.85
2023-03-05T14:37:27.732Z,4.80
2023-03-05T14:39:59.380Z,5.68
2023-03-05T14:42:33.397Z,4.25
2023-03-05T14:45:03.392Z,5.10
2023-03-05T14:47:31.449Z,4.55
2023-03-05T14:49:59.220Z,4.13
2023-03-05T14:52:28.230Z,5.15
2023-03-05T14:54:57.425Z,5.40
2023-03-05T14:57:28.775Z,4.57
2023-03-05T14:59:56.635Z,5.10
2023-03-05T15:02:26.431Z,5.80
2023-03-05T15:04:54.410Z,6.82
2023-03-05T15:07:25.286Z,6.97
2023-03-05T15:09:53.121Z,6.60
2023-03-05T15:12:24.613Z,5.53
2023-03-05T15:14:53.424Z,5.95
2023-03-05T15:17:23.342Z,5.65
2023-03-05T15:19:51.519Z,4.90
2023-03-05T15:22:19.311Z,4.85
2023-03-05T15:24:47.286Z,7.15
2023-03-05T15:27:15.541Z,5.90
2023-03-05T15:29:44.865Z,5.60
2023-03-05T15:32:12.982Z,6.55
2023-03-05T15:34:40.789Z,5.47
2023-03-05T15:37:08.845Z,6.80
2023-03-05T15:39:36.665Z,4.72
2023-03-05T15:42:06.371Z,5.50
2023-03-05T15:44:34.479Z,5.95
2023-03-05T15:47:03.681Z,5.20
2023-03-05T15:49:31.499Z,7.72
2023-03-05T15:51:59.420Z,6.75
2023-03-05T15:54:27.824Z,5.80
2023-03-05T15:56:55.797Z,6.38
2023-03-05T15:59:23.711Z,4.88
2023-03-05T16:01:52.564Z,5.93
2023-03-05T16:04:21.756Z,6.05
2023-03-05T16:06:51.424Z,5.47
2023-03-05T16:09:21.968Z,7.30
2023-03-05T16:11:51.457Z,7.35
2023-03-05T16:14:23.674Z,6.03
2023-03-05T16:16:53.832Z,5.30
2023-03-05T16:19:25.710Z,5.47
2023-03-05T16:21:53.497Z,6.43
2023-03-05T16:24:21.350Z,6.03
2023-03-05T16:26:49.197Z,5.68
2023-03-05T16:29:16.986Z,6.15
2023-03-05T16:31:45.407Z,6.15
2023-03-05T16:34:16.107Z,7.15
2023-03-05T16:36:52.425Z,5.68
2023-03-05T16:39:21.100Z,5.65
2023-03-05T16:41:49.407Z,6.53
2023-03-05T16:44:17.219Z,6.95
2023-03-05T16:46:49.143Z,8.95
2023-03-05T16:49:17.488Z,6.68
2023-03-05T16:51:45.317Z,6.03
2023-03-05T16:54:14.486Z,6.93
2023-03-05T16:56:42.297Z,7.07
2023-03-05T16:59:10.090Z,6.07
2023-03-05T17:01:37.844Z,6.47
2023-03-05T17:04:06.112Z,5.32
2023-03-05T17:06:38.350Z,6.07
2023-03-05T17:09:06.571Z,8.00
2023-03-05T17:11:35.698Z,9.73
2023-03-05T17:14:04.162Z,7.07
2023-03-05T17:16:32.075Z,7.75
2023-03-05T17:18:59.900Z,6.55
2023-03-05T17:21:27.680Z,6.20
2023-03-05T17:23:56.657Z,5.95
2023-03-05T17:26:24.483Z,5.10
2023-03-05T17:28:54.486Z,7.47
2023-03-05T17:31:22.439Z,7.63
2023-03-05T17:33:50.827Z,4.47
2023-03-05T17:36:20.963Z,6.50
2023-03-05T17:38:49.445Z,6.55
2023-03-05T17:41:18.898Z,6.05
2023-03-05T17:43:47.280Z,6.90
2023-03-05T17:46:16.998Z,6.53
2023-03-05T17:48:45.121Z,7.32
2023-03-05T17:51:16.673Z,7.60
2023-03-05T17:53:45.317Z,6.10
2023-03-05T17:56:16.018Z,10.25
2023-03-05T17:58:43.870Z,5.65
2023-03-05T18:01:11.714Z,6.32
2023-03-05T18:03:40.885Z,6.28
2023-03-05T18:06:16.139Z,6.43
2023-03-05T18:08:43.901Z,5.63
2023-03-05T18:11:11.689Z,6.95
2023-03-05T18:13:39.536Z,5.80
2023-03-05T18:16:07.810Z,6.70
2023-03-05T18:18:35.826Z,5.07
2023-03-05T18:21:05.138Z,4.85
2023-03-05T18:23:32.917Z,4.53
2023-03-05T18:26:00.722Z,7.63
2023-03-05T18:28:28.724Z,6.65
2023-03-05T18:30:56.671Z,7.10
2023-03-05T18:33:26.136Z,6.68
2023-03-05T18:35:54.757Z,6.35
2023-03-05T18:38:26.427Z,7.20
2023-03-05T18:40:55.612Z,5.35
2023-03-05T18:43:25.187Z,5.80
2023-03-05T18:45:55.192Z,7.97
2023-03-05T18:48:23.732Z,6.38
2023-03-05T18:50:52.250Z,7.82
2023-03-05T18:53:20.869Z,9.00
2023-03-05T18:55:51.492Z,8.93
2023-03-05T18:58:19.502Z,6.82
2023-03-05T19:00:48.589Z,7.78
2023-03-05T19:03:18.725Z,6.88
2023-03-05T19:08:15.252Z,6.90
2023-03-05T19:10:43.122Z,6.15
2023-03-05T19:13:25.767Z,6.25
2023-03-05T19:15:53.734Z,6.00
2023-03-05T19:18:23.287Z,6.90
2023-03-05T19:20:55.676Z,7.18
2023-03-05T19:23:23.729Z,7.15
2023-03-05T19:25:51.555Z,7.28
2023-03-05T19:28:21.237Z,7.85
2023-03-05T19:30:49.686Z,5.10
2023-03-05T19:33:17.549Z,6.25
2023-03-05T19:35:45.786Z,5.55
2023-03-05T19:38:13.570Z,5.65
2023-03-05T19:40:41.426Z,7.63
2023-03-05T19:43:09.451Z,7.05
2023-03-05T19:45:38.580Z,7.20
2023-03-05T19:48:06.783Z,6.60
2023-03-05T19:50:34.768Z,7.15
2023-03-05T19:53:02.658Z,6.57
2023-03-05T19:55:30.422Z,6.15
2023-03-05T19:57:58.233Z,6.57
2023-03-05T20:00:27.500Z,6.03
2023-03-05T20:02:56.678Z,7.78
2023-03-05T20:05:25.654Z,6.22
2023-03-05T20:07:53.577Z,6.53
2023-03-05T20:10:22.413Z,6.47
2023-03-05T20:12:50.951Z,6.45
2023-03-05T20:15:19.520Z,6.55
2023-03-05T20:17:47.352Z,6.43
2023-03-05T20:20:19.229Z,6.90
2023-03-05T20:22:48.111Z,6.93
2023-03-05T20:25:17.966Z,6.75
2023-03-05T20:27:45.752Z,6.65
2023-03-05T20:30:17.875Z,5.72
2023-03-05T20:32:47.264Z,7.00
2023-03-05T20:35:18.982Z,7.30
2023-03-05T20:38:00.181Z,8.20
2023-03-05T20:40:28.150Z,9.45
2023-03-05T20:42:56.004Z,7.03
2023-03-05T20:45:23.818Z,10.52
2023-03-05T20:47:51.609Z,7.18
2023-03-05T20:50:40.925Z,8.77
2023-03-05T20:53:09.005Z,7.70
2023-03-05T20:55:36.913Z,12.90
2023-03-05T20:58:04.720Z,7.82
2023-03-05T21:00:32.914Z,9.05
2023-03-05T21:03:00.722Z,8.60
2023-03-05T21:05:31.051Z,7.03
2023-03-05T21:08:05.541Z,7.38
2023-03-05T21:10:34.678Z,6.30
2023-03-05T21:13:04.149Z,6.47
2023-03-05T21:15:32.052Z,7.05
2023-03-05T21:18:00.198Z,5.80
2023-03-05T21:20:30.231Z,8.18
2023-03-05T21:23:00.042Z,7.50
2023-03-05T21:25:29.714Z,6.95
2023-03-05T21:27:59.331Z,7.50
2023-03-05T21:30:31.410Z,8.63
2023-03-05T21:32:59.692Z,7.80
2023-03-05T21:35:28.314Z,8.82
2023-03-05T21:37:56.112Z,7.97
2023-03-05T21:40:25.248Z,7.18
2023-03-05T21:42:53.754Z,8.27
2023-03-05T21:45:23.578Z,6.57
2023-03-05T21:47:52.719Z,7.88
2023-03-05T21:50:21.679Z,6.78
2023-03-05T21:52:49.563Z,6.82
2023-03-05T21:55:19.629Z,8.18
2023-03-05T21:57:51.314Z,7.47
2023-03-05T22:00:22.687Z,6.53
2023-03-05T22:02:50.638Z,6.28
2023-03-05T22:05:18.676Z,6.15
2023-03-05T22:07:47.210Z,5.43
2023-03-05T22:10:16.645Z,6.28
2023-03-05T22:12:53.233Z,6.70
2023-03-05T22:15:22.720Z,7.57
2023-03-05T22:17:50.566Z,6.50
2023-03-05T22:20:19.247Z,6.47
2023-03-05T22:22:47.080Z,6.55
2023-03-05T22:25:16.453Z,6.78
2023-03-05T22:27:44.790Z,6.05
2023-03-05T22:30:14.353Z,8.82
2023-03-05T22:32:43.508Z,6.00
2023-03-05T22:35:13.251Z,6.10
2023-03-05T22:37:42.247Z,6.85
2023-03-05T22:40:14.440Z,7.55
2023-03-05T22:42:42.348Z,5.45
2023-03-05T22:45:11.468Z,5.30
2023-03-05T22:47:39.282Z,6.85
2023-03-05T22:50:09.757Z,5.90
2023-03-05T22:52:37.528Z,7.00
2023-03-05T22:55:05.899Z,4.90
2023-03-05T22:57:34.499Z,5.78
2023-03-05T23:00:02.957Z,5.55
2023-03-05T23:02:30.721Z,5.70
2023-03-05T23:05:00.449Z,5.78
2023-03-05T23:07:31.633Z,5.25
2023-03-05T23:10:01.713Z,5.72
2023-03-05T23:12:32.148Z,6.32
2023-03-05T23:15:00.726Z,6.22
2023-03-05T23:17:28.769Z,6.90
2023-03-05T23:19:56.627Z,6.53
2023-03-05T23:22:24.418Z,6.95
2023-03-05T23:24:53.548Z,7.53
2023-03-05T23:27:21.355Z,5.28
2023-03-05T23:29:58.791Z,5.80
2023-03-05T23:32:46.527Z,7.93
2023-03-05T23:35:16.451Z,7.03
2023-03-05T23:37:44.284Z,6.05
2023-03-05T23:40:17.191Z,6.20
2023-03-05T23:42:45.342Z,6.63
2023-03-05T23:45:14.963Z,6.15
2023-03-05T23:47:43.031Z,5.78
2023-03-05T23:50:15.685Z,8.48
2023-03-05T23:52:43.877Z,5.57
2023-03-05T23:55:17.391Z,6.43
2023-03-05T23:57:45.536Z,7.10
